Time;durP1;ratioP1;P1;durP2;ratioP2;P2;SDS_P1;SDS_P2;PMS_P1;PMS_P2;Temp;Humidity;BMP_temperature;BMP_pressure;BME280_temperature;BME280_humidity;BME280_pressure;Samples;Min_cycle;Max_cycle;Signal;HPM_P1;HPM_P2
2023/12/02 00:01:33;;;;;;;109.63;72.55;;;;;;;13.66;nan;99159.09;4756248;30;20052;-62
2023/12/02 00:04:02;;;;;;;110.68;72.57;;;;;;;13.69;nan;99162.16;4738016;30;20052;-63
2023/12/02 00:06:32;;;;;;;112.43;73.13;;;;;;;13.64;nan;99153.97;4746092;30;20052;-62
2023/12/02 00:09:02;;;;;;;105.60;70.28;;;;;;;13.63;nan;99156.84;4746665;30;20063;-62
2023/12/02 00:11:31;;;;;;;110.95;72.65;;;;;;;13.63;nan;99168.28;4745499;30;20058;-62
2023/12/02 00:14:01;;;;;;;117.30;71.90;;;;;;;13.64;nan;99163.78;4736598;30;20067;-62
2023/12/02 00:16:30;;;;;;;108.65;71.50;;;;;;;13.57;nan;99165.59;4744972;30;20402;-62
2023/12/02 00:19:00;;;;;;;107.05;70.50;;;;;;;13.54;nan;99168.69;4745781;30;20056;-62
2023/12/02 00:21:30;;;;;;;115.65;70.68;;;;;;;13.57;nan;99173.59;4761683;30;20056;-62
2023/12/02 00:23:59;;;;;;;107.60;71.20;;;;;;;13.60;nan;99167.88;4763657;29;20052;-62
2023/12/02 00:26:30;;;;;;;109.97;70.65;;;;;;;13.61;nan;99172.16;4764068;29;20079;-62
2023/12/02 00:29:01;;;;;;;113.70;73.57;;;;;;;13.56;nan;99175.44;4765768;29;20549;-62
2023/12/02 00:31:31;;;;;;;113.45;71.80;;;;;;;13.54;nan;99182.00;4762338;29;20155;-62
2023/12/02 00:34:00;;;;;;;111.55;73.15;;;;;;;13.54;nan;99182.81;4769189;29;20071;-62
2023/12/02 00:36:32;;;;;;;121.00;74.65;;;;;;;13.49;nan;99179.91;4774165;29;20572;-62
2023/12/02 00:39:02;;;;;;;108.77;72.60;;;;;;;13.52;nan;99184.00;4765922;30;20079;-63
2023/12/02 00:41:31;;;;;;;110.47;72.63;;;;;;;13.55;nan;99187.09;4750679;30;20117;-62
2023/12/02 00:44:01;;;;;;;117.90;73.25;;;;;;;13.52;nan;99189.34;4745816;30;20599;-62
2023/12/02 00:46:32;;;;;;;106.57;73.70;;;;;;;13.48;nan;99191.56;4760964;30;20148;-62
2023/12/02 00:49:01;;;;;;;124.18;74.85;;;;;;;13.44;nan;99191.16;4780510;29;20576;-64
2023/12/02 00:51:31;;;;;;;112.38;73.95;;;;;;;13.48;nan;99196.91;4766804;29;20055;-62
2023/12/02 00:54:01;;;;;;;117.47;75.25;;;;;;;13.46;nan;99196.25;4779944;29;20796;-62
2023/12/02 00:56:32;;;;;;;112.80;75.43;;;;;;;13.47;nan;99204.06;4776362;29;20055;-62
2023/12/02 00:59:01;;;;;;;115.80;74.65;;;;;;;13.44;nan;99201.81;4762427;30;20405;-62
2023/12/02 01:01:31;;;;;;;114.70;74.50;;;;;;;13.44;nan;99203.63;4764709;29;20058;-63
2023/12/02 01:04:00;;;;;;;113.35;76.05;;;;;;;13.42;nan;99203.81;4777349;30;20134;-62
2023/12/02 01:06:30;;;;;;;112.60;73.10;;;;;;;13.41;nan;99207.50;4771208;29;20052;-62
2023/12/02 01:08:59;;;;;;;115.70;75.05;;;;;;;13.36;nan;99212.63;4769084;29;20148;-62
2023/12/02 01:11:30;;;;;;;125.55;78.47;;;;;;;13.42;nan;99208.31;4764199;29;20051;-62
2023/12/02 01:13:59;;;;;;;117.20;75.80;;;;;;;13.42;nan;99210.97;4780727;29;20115;-62
2023/12/02 01:16:29;;;;;;;118.25;75.93;;;;;;;13.42;nan;99213.66;4775560;29;20109;-62
2023/12/02 01:18:59;;;;;;;118.22;75.07;;;;;;;13.40;nan;99208.53;4762374;30;20098;-62
2023/12/02 01:21:28;;;;;;;113.45;76.43;;;;;;;13.37;nan;99211.56;4763705;29;20401;-62
2023/12/02 01:23:57;;;;;;;115.43;73.90;;;;;;;13.34;nan;99209.31;4770919;29;20067;-62
2023/12/02 01:26:27;;;;;;;109.03;73.70;;;;;;;13.33;nan;99207.69;4767013;30;20322;-62
2023/12/02 01:28:58;;;;;;;105.53;72.72;;;;;;;13.37;nan;99211.56;4762042;30;20059;-62
2023/12/02 01:31:27;;;;;;;114.18;74.53;;;;;;;13.29;nan;99214.41;4752700;29;20467;-62
2023/12/02 01:33:57;;;;;;;116.80;75.13;;;;;;;13.25;nan;99212.34;4758291;30;20048;-62
2023/12/02 01:36:26;;;;;;;125.00;78.38;;;;;;;13.31;nan;99225.69;4763791;29;20527;-62
2023/12/02 01:38:56;;;;;;;124.10;77.25;;;;;;;13.33;nan;99223.63;4763513;29;20059;-61
2023/12/02 01:41:25;;;;;;;124.32;77.00;;;;;;;13.33;nan;99222.81;4774369;29;20051;-62
2023/12/02 01:43:55;;;;;;;121.85;78.38;;;;;;;13.33;nan;99226.28;4781115;29;20070;-62
2023/12/02 01:46:26;;;;;;;119.70;77.30;;;;;;;13.28;nan;99231.38;4774034;30;20051;-62
2023/12/02 01:49:02;;;;;;;127.53;80.53;;;;;;;13.26;nan;99233.44;4779769;29;20140;-62
2023/12/02 01:51:32;;;;;;;122.30;80.72;;;;;;;13.24;nan;99237.28;4769819;30;20066;-64
2023/12/02 01:54:02;;;;;;;131.63;82.07;;;;;;;13.27;nan;99245.72;4778947;30;20496;-62
2023/12/02 01:56:32;;;;;;;120.18;78.80;;;;;;;13.32;nan;99243.28;4774653;29;20058;-62
2023/12/02 01:59:04;;;;;;;126.72;82.82;;;;;;;13.35;nan;99250.88;4777784;29;20059;-61
2023/12/02 02:01:33;;;;;;;126.75;78.50;;;;;;;13.30;nan;99247.97;4777500;30;20055;-62
2023/12/02 02:04:03;;;;;;;133.15;80.95;;;;;;;13.28;nan;99251.84;4774698;30;20071;-62
2023/12/02 02:06:33;;;;;;;115.32;78.05;;;;;;;13.33;nan;99252.91;4773878;30;20625;-62
2023/12/02 02:09:04;;;;;;;118.55;77.43;;;;;;;13.34;nan;99256.38;4761246;30;20113;-62
2023/12/02 02:11:34;;;;;;;123.47;80.20;;;;;;;13.39;nan;99262.75;4775140;29;20055;-62
2023/12/02 02:14:03;;;;;;;123.68;80.63;;;;;;;13.43;nan;99256.03;4761675;30;20156;-62
2023/12/02 02:16:33;;;;;;;123.18;78.40;;;;;;;13.42;nan;99270.34;4765179;30;20142;-62
2023/12/02 02:19:02;;;;;;;124.05;78.22;;;;;;;13.42;nan;99274.84;4780165;29;20055;-63
2023/12/02 02:21:32;;;;;;;124.55;75.93;;;;;;;13.44;nan;99278.16;4780086;29;20047;-61
2023/12/02 02:24:01;;;;;;;123.35;79.80;;;;;;;13.44;nan;99278.16;4762967;30;20083;-62
2023/12/02 02:26:37;;;;;;;123.88;80.35;;;;;;;13.53;nan;99281.47;4764383;29;20062;-61
2023/12/02 02:29:07;;;;;;;120.45;76.07;;;;;;;13.54;nan;99281.28;4773832;29;20487;-61
2023/12/02 02:31:37;;;;;;;121.68;76.57;;;;;;;13.58;nan;99289.69;4763420;29;20066;-63
2023/12/02 02:34:06;;;;;;;119.35;76.35;;;;;;;13.66;nan;99285.00;4779002;30;20059;-61
2023/12/02 02:36:36;;;;;;;118.63;77.60;;;;;;;13.71;nan;99287.09;4776181;29;20350;-61
2023/12/02 02:39:07;;;;;;;119.30;76.70;;;;;;;13.78;nan;99294.06;4761342;29;20746;-61
2023/12/02 02:41:37;;;;;;;117.35;76.40;;;;;;;13.85;nan;99299.44;4763323;29;20056;-61
2023/12/02 02:44:06;;;;;;;132.38;81.53;;;;;;;13.90;nan;99302.28;4776451;29;20055;-61
2023/12/02 02:46:36;;;;;;;124.50;80.35;;;;;;;13.98;nan;99301.31;4769215;29;20055;-61
2023/12/02 02:49:05;;;;;;;125.53;80.03;;;;;;;14.10;nan;99305.88;4765675;29;20155;-61
2023/12/02 02:51:35;;;;;;;122.55;78.53;;;;;;;14.20;nan;99305.50;4778353;29;20055;-61
2023/12/02 02:54:05;;;;;;;124.85;83.20;;;;;;;14.29;nan;99310.41;4760975;30;20137;-61
2023/12/02 02:56:35;;;;;;;124.05;78.43;;;;;;;14.41;nan;99312.53;4763540;29;20124;-62
2023/12/02 02:59:04;;;;;;;118.22;79.03;;;;;;;14.47;nan;99304.53;4779228;29;20154;-61
2023/12/02 03:01:34;;;;;;;126.00;82.53;;;;;;;14.60;nan;99311.75;4778680;29;20055;-60
2023/12/02 03:04:04;;;;;;;127.45;83.40;;;;;;;14.71;nan;99316.47;4771049;29;20546;-61
2023/12/02 03:06:33;;;;;;;128.93;83.43;;;;;;;14.81;nan;99311.56;4764525;30;20062;-61
2023/12/02 03:09:05;;;;;;;130.52;84.22;;;;;;;14.96;nan;99316.72;4764746;30;20059;-61
2023/12/02 03:11:34;;;;;;;135.35;89.22;;;;;;;15.08;nan;99318.53;4765540;30;20079;-61
2023/12/02 03:14:05;;;;;;;133.75;91.10;;;;;;;15.22;nan;99317.47;4781761;29;20061;-60
2023/12/02 03:16:34;;;;;;;131.82;92.25;;;;;;;15.70;nan;99325.25;4769598;29;20088;-61
2023/12/02 03:19:04;;;;;;;132.88;91.18;;;;;;;16.24;nan;99326.66;4763461;29;20083;-61
2023/12/02 03:21:34;;;;;;;133.50;89.63;;;;;;;16.58;nan;99328.97;4765149;30;20143;-61
2023/12/02 03:24:03;;;;;;;131.18;89.47;;;;;;;16.83;nan;99337.00;4769849;29;20087;-61
2023/12/02 03:26:36;;;;;;;141.88;92.95;;;;;;;17.08;nan;99330.63;4769006;29;20225;-61
2023/12/02 03:29:06;;;;;;;137.32;96.35;;;;;;;17.37;nan;99333.69;4764512;30;20052;-61
2023/12/02 03:31:36;;;;;;;139.65;95.43;;;;;;;17.69;nan;99335.25;4765150;30;20707;-61
2023/12/02 03:34:05;;;;;;;138.15;91.47;;;;;;;18.18;nan;99352.19;4772337;29;20087;-61
2023/12/02 03:36:35;;;;;;;137.13;87.10;;;;;;;18.52;nan;99343.47;4769908;30;20055;-61
2023/12/02 03:39:05;;;;;;;125.25;86.57;;;;;;;18.82;nan;99346.97;4764101;30;20377;-61
2023/12/02 03:41:35;;;;;;;126.35;84.43;;;;;;;19.18;nan;99351.34;4763625;29;20052;-61
2023/12/02 03:44:04;;;;;;;117.95;79.95;;;;;;;19.72;nan;99355.59;4766234;30;20141;-61
2023/12/02 03:46:36;;;;;;;114.15;77.47;;;;;;;19.97;nan;99362.56;4779632;29;20150;-61
2023/12/02 03:49:06;;;;;;;117.53;74.95;;;;;;;20.32;nan;99362.50;4763711;30;20086;-61
2023/12/02 03:51:35;;;;;;;106.47;71.25;;;;;;;20.87;nan;99368.94;4763488;30;20845;-61
2023/12/02 03:54:04;;;;;;;92.63;64.70;;;;;;;21.22;nan;99371.44;4760462;29;20055;-61
2023/12/02 03:56:34;;;;;;;85.68;55.58;;;;;;;21.63;nan;99377.44;4775791;29;20079;-61
2023/12/02 03:59:04;;;;;;;69.78;46.38;;;;;;;21.86;nan;99382.66;4781916;29;20145;-61
2023/12/02 04:01:33;;;;;;;67.72;42.72;;;;;;;22.04;nan;99378.88;4771279;30;20059;-61
2023/12/02 04:04:03;;;;;;;63.33;38.50;;;;;;;22.38;nan;99383.88;4772642;30;20051;-62
2023/12/02 04:06:32;;;;;;;59.35;39.97;;;;;;;22.78;nan;99391.63;4775714;30;20791;-62
2023/12/02 04:09:02;;;;;;;56.83;37.70;;;;;;;22.85;nan;99391.41;4762798;30;20060;-62
2023/12/02 04:11:32;;;;;;;54.03;34.03;;;;;;;22.97;nan;99402.09;4762634;30;20060;-62
2023/12/02 04:14:02;;;;;;;55.88;33.70;;;;;;;23.01;nan;99395.91;4780227;29;20059;-63
2023/12/02 04:16:31;;;;;;;47.80;33.58;;;;;;;23.35;nan;99401.06;4775409;29;20062;-62
2023/12/02 04:19:01;;;;;;;48.17;34.10;;;;;;;23.57;nan;99409.91;4763695;30;20063;-62
2023/12/02 04:21:31;;;;;;;48.72;35.53;;;;;;;23.56;nan;99408.28;4768501;29;20547;-63
2023/12/02 04:24:01;;;;;;;51.67;35.47;;;;;;;23.46;nan;99416.31;4764467;30;20055;-63
2023/12/02 04:26:31;;;;;;;52.40;35.20;;;;;;;23.49;nan;99413.91;4769166;29;20071;-63
2023/12/02 04:29:00;;;;;;;40.95;29.27;;;;;;;23.41;nan;99422.44;4782000;29;20067;-60
2023/12/02 04:31:32;;;;;;;41.47;28.25;;;;;;;23.38;nan;99420.28;4778404;29;20062;-62
2023/12/02 04:34:01;;;;;;;43.17;28.27;;;;;;;23.39;nan;99421.91;4773319;29;20070;-68
2023/12/02 04:36:31;;;;;;;39.63;27.13;;;;;;;23.20;nan;99421.47;4771856;29;20051;-63
2023/12/02 04:39:00;;;;;;;37.83;26.83;;;;;;;23.11;nan;99417.59;4774174;29;20066;-61
2023/12/02 04:41:30;;;;;;;41.38;26.08;;;;;;;22.77;nan;99419.72;4781959;29;20044;-62
2023/12/02 04:44:01;;;;;;;40.80;25.67;;;;;;;22.60;nan;99420.84;4781889;30;20116;-63
2023/12/02 04:46:30;;;;;;;46.25;26.42;;;;;;;22.30;nan;99416.72;4776204;29;20047;-62
2023/12/02 04:49:00;;;;;;;34.85;24.98;;;;;;;22.09;nan;99425.59;4764207;30;20058;-62
2023/12/02 04:51:29;;;;;;;38.20;24.52;;;;;;;21.77;nan;99417.31;4779251;29;20081;-62
2023/12/02 04:53:59;;;;;;;37.60;25.65;;;;;;;21.75;nan;99418.59;4766933;30;20060;-62
2023/12/02 04:56:29;;;;;;;39.67;25.52;;;;;;;21.54;nan;99417.50;4768259;30;20130;-62
2023/12/02 04:58:58;;;;;;;34.40;23.15;;;;;;;21.26;nan;99414.88;4745628;30;20056;-62
2023/12/02 05:01:28;;;;;;;41.45;24.67;;;;;;;21.48;nan;99413.06;4744998;30;20056;-62
2023/12/02 05:03:58;;;;;;;37.50;24.33;;;;;;;21.34;nan;99411.75;4770531;29;20124;-62
2023/12/02 05:06:28;;;;;;;34.90;22.92;;;;;;;21.18;nan;99415.28;4756103;29;20189;-62
2023/12/02 05:08:58;;;;;;;44.35;24.73;;;;;;;21.27;nan;99420.03;4762893;29;20044;-62
2023/12/02 05:11:27;;;;;;;34.75;23.77;;;;;;;21.31;nan;99409.56;4761981;30;20067;-62
2023/12/02 05:13:56;;;;;;;36.80;24.70;;;;;;;21.37;nan;99416.69;4763508;29;20055;-62
2023/12/02 05:16:26;;;;;;;40.13;25.15;;;;;;;21.33;nan;99415.53;4766434;29;20078;-63
2023/12/02 05:18:56;;;;;;;43.70;25.20;;;;;;;21.29;nan;99415.19;4762258;30;20064;-62
2023/12/02 05:21:25;;;;;;;43.65;26.73;;;;;;;21.20;nan;99411.25;4766717;30;20480;-62
2023/12/02 05:23:57;;;;;;;42.10;27.73;;;;;;;21.25;nan;99414.03;4761157;29;20071;-61
2023/12/02 05:26:27;;;;;;;41.92;28.52;;;;;;;21.27;nan;99416.50;4760220;29;20067;-62
2023/12/02 05:28:57;;;;;;;47.45;30.05;;;;;;;21.43;nan;99410.28;4761660;29;20048;-62
2023/12/02 05:31:27;;;;;;;49.53;32.10;;;;;;;21.32;nan;99403.13;4760015;30;20732;-62
2023/12/02 05:33:58;;;;;;;57.08;34.53;;;;;;;21.45;nan;99411.69;4759696;30;20052;-62
2023/12/02 05:36:27;;;;;;;54.30;35.13;;;;;;;21.54;nan;99413.97;4762891;29;20113;-62
2023/12/02 05:38:57;;;;;;;52.67;32.55;;;;;;;21.18;nan;99413.41;4764999;29;20060;-62
2023/12/02 05:41:27;;;;;;;49.88;33.17;;;;;;;21.31;nan;99409.56;4760447;30;20126;-62
2023/12/02 05:43:56;;;;;;;49.63;32.15;;;;;;;21.54;nan;99412.09;4762824;29;20579;-62
2023/12/02 05:46:26;;;;;;;47.22;31.35;;;;;;;21.84;nan;99411.72;4765431;29;20134;-62
2023/12/02 05:48:55;;;;;;;47.03;30.48;;;;;;;21.94;nan;99410.03;4763362;29;20070;-62
2023/12/02 05:51:26;;;;;;;51.60;33.40;;;;;;;22.38;nan;99402.78;4760055;29;20051;-63
2023/12/02 05:53:56;;;;;;;49.80;32.15;;;;;;;22.28;nan;99397.25;4754233;30;20451;-61
2023/12/02 05:56:25;;;;;;;40.22;28.45;;;;;;;22.60;nan;99399.22;4751025;30;20052;-62
2023/12/02 05:58:55;;;;;;;40.85;27.45;;;;;;;22.80;nan;99394.88;4767875;29;20212;-62
2023/12/02 06:01:24;;;;;;;49.67;28.92;;;;;;;22.59;nan;99397.59;4761945;30;20072;-62
2023/12/02 06:03:55;;;;;;;56.15;30.02;;;;;;;22.93;nan;99387.44;4773367;30;20066;-61
2023/12/02 06:06:25;;;;;;;45.58;29.15;;;;;;;22.82;nan;99391.94;4777161;29;20138;-59
2023/12/02 06:08:55;;;;;;;48.10;28.42;;;;;;;22.65;nan;99383.09;4763309;30;20071;-62
2023/12/02 06:11:24;;;;;;;38.63;27.55;;;;;;;22.68;nan;99385.28;4758621;30;20063;-62
2023/12/02 06:13:54;;;;;;;56.70;30.98;;;;;;;22.75;nan;99372.41;4761405;30;20089;-61
2023/12/02 06:16:23;;;;;;;59.45;36.13;;;;;;;22.90;nan;99372.56;4765367;30;21443;-62
2023/12/02 06:18:53;;;;;;;56.05;35.17;;;;;;;22.73;nan;99369.16;4770873;30;20059;-61
2023/12/02 06:21:22;;;;;;;56.40;36.17;;;;;;;22.64;nan;99359.84;4758595;30;20607;-61
2023/12/02 06:23:53;;;;;;;59.55;33.50;;;;;;;22.61;nan;99361.19;4764063;30;20173;-61
2023/12/02 06:26:23;;;;;;;63.78;34.55;;;;;;;22.72;nan;99354.03;4768047;29;20059;-61
2023/12/02 06:28:53;;;;;;;53.78;30.90;;;;;;;23.05;nan;99353.81;4760447;30;20460;-61
2023/12/02 06:31:22;;;;;;;81.32;52.10;;;;;;;23.10;nan;99348.41;4759670;29;20063;-62
2023/12/02 06:33:51;;;;;;;78.50;50.72;;;;;;;23.12;nan;99338.19;4762951;30;20066;-62
2023/12/02 06:36:21;;;;;;;248.27;164.68;;;;;;;23.40;nan;99339.75;4760392;30;20048;-62
2023/12/02 06:38:52;;;;;;;128.88;86.40;;;;;;;23.70;nan;99341.84;4765312;30;20055;-62
2023/12/02 06:41:23;;;;;;;242.47;154.87;;;;;;;23.51;nan;99335.22;4764143;30;20055;-63
2023/12/02 06:43:53;;;;;;;96.78;57.03;;;;;;;23.54;nan;99334.72;4765136;30;20121;-62
2023/12/02 06:46:23;;;;;;;104.95;68.03;;;;;;;23.59;nan;99332.84;4762934;29;20123;-62
2023/12/02 06:48:53;;;;;;;129.05;85.32;;;;;;;23.55;nan;99320.91;4759907;29;20075;-62
2023/12/02 06:51:28;;;;;;;65.82;40.42;;;;;;;23.55;nan;99331.75;4762033;29;20690;-62
2023/12/02 06:53:58;;;;;;;57.38;33.70;;;;;;;22.79;nan;99316.84;4765715;29;20060;-63
2023/12/02 06:56:28;;;;;;;74.57;44.55;;;;;;;23.06;nan;99314.06;4760720;30;20762;-63
2023/12/02 06:58:58;;;;;;;56.63;34.50;;;;;;;23.13;nan;99314.66;4767050;29;20102;-62
2023/12/02 07:01:32;;;;;;;79.38;51.83;;;;;;;23.38;nan;99300.50;4765609;29;20059;-63
2023/12/02 07:04:02;;;;;;;66.60;43.83;;;;;;;23.55;nan;99299.28;4765066;30;20347;-64
2023/12/02 07:06:31;;;;;;;59.63;38.25;;;;;;;23.42;nan;99298.91;4752555;29;20051;-63
2023/12/02 07:09:01;;;;;;;52.20;35.55;;;;;;;23.39;nan;99294.84;4759556;30;20552;-62
2023/12/02 07:11:30;;;;;;;57.97;35.90;;;;;;;23.55;nan;99287.66;4760664;29;20075;-62
2023/12/02 07:14:00;;;;;;;52.97;34.17;;;;;;;23.52;nan;99288.19;4758135;29;20456;-63
2023/12/02 07:16:29;;;;;;;48.40;32.25;;;;;;;23.68;nan;99288.00;4754599;30;20055;-63
2023/12/02 07:18:59;;;;;;;55.10;36.60;;;;;;;23.81;nan;99283.19;4763272;30;20083;-63
2023/12/02 07:21:29;;;;;;;45.90;32.78;;;;;;;23.79;nan;99278.03;4763718;30;20150;-63
2023/12/02 07:23:58;;;;;;;33.63;24.15;;;;;;;23.77;nan;99271.25;4767613;30;20063;-62
2023/12/02 07:26:28;;;;;;;50.70;32.58;;;;;;;23.90;nan;99268.09;4761242;29;20058;-62
2023/12/02 07:28:57;;;;;;;29.85;17.52;;;;;;;23.51;nan;99267.63;4765345;29;20175;-62
2023/12/02 07:31:27;;;;;;;32.70;22.45;;;;;;;23.65;nan;99264.19;4768385;29;20083;-62
2023/12/02 07:33:57;;;;;;;44.40;26.65;;;;;;;23.72;nan;99253.16;4773291;29;20148;-63
2023/12/02 07:36:26;;;;;;;38.88;22.30;;;;;;;23.67;nan;99262.06;4763183;29;20705;-63
2023/12/02 07:38:56;;;;;;;37.13;23.95;;;;;;;23.76;nan;99256.94;4761534;30;20102;-62
2023/12/02 07:41:25;;;;;;;38.42;24.75;;;;;;;23.69;nan;99251.75;4763049;30;20134;-63
2023/12/02 07:43:55;;;;;;;23.25;15.68;;;;;;;23.59;nan;99246.31;4762797;30;20142;-63
2023/12/02 07:46:24;;;;;;;25.23;15.88;;;;;;;23.54;nan;99248.19;4759789;29;20066;-63
2023/12/02 07:48:56;;;;;;;20.67;13.93;;;;;;;23.57;nan;99244.94;4763602;30;20702;-63
2023/12/02 07:51:26;;;;;;;32.17;18.60;;;;;;;23.63;nan;99239.28;4762829;29;20059;-63
2023/12/02 07:53:55;;;;;;;23.10;15.38;;;;;;;23.42;nan;99234.03;4761670;29;20109;-63
2023/12/02 07:56:25;;;;;;;28.58;16.15;;;;;;;23.18;nan;99229.03;4763122;29;20059;-63
2023/12/02 07:58:55;;;;;;;34.45;17.38;;;;;;;23.36;nan;99225.09;4763165;29;20102;-63
2023/12/02 08:01:25;;;;;;;27.02;18.10;;;;;;;23.52;nan;99226.81;4763385;29;20068;-63
2023/12/02 08:03:56;;;;;;;23.13;16.77;;;;;;;23.34;nan;99221.00;4764350;29;20067;-65
2023/12/02 08:06:25;;;;;;;29.45;17.60;;;;;;;23.25;nan;99213.41;4762905;29;20062;-63
2023/12/02 08:08:55;;;;;;;25.48;17.25;;;;;;;23.30;nan;99209.91;4770414;30;20055;-63
2023/12/02 08:11:24;;;;;;;25.50;16.95;;;;;;;23.40;nan;99211.84;4769650;29;20173;-63
2023/12/02 08:13:54;;;;;;;23.67;15.90;;;;;;;23.50;nan;99215.44;4763770;30;20063;-63
2023/12/02 08:16:24;;;;;;;25.02;14.77;;;;;;;23.46;nan;99210.81;4762502;30;20052;-63
2023/12/02 08:18:53;;;;;;;18.60;14.65;;;;;;;23.37;nan;99210.47;4762831;30;20062;-63
2023/12/02 08:21:22;;;;;;;23.73;15.57;;;;;;;23.42;nan;99206.97;4765032;29;20769;-63
2023/12/02 08:23:52;;;;;;;24.35;13.82;;;;;;;23.45;nan;99206.50;4768940;30;20191;-65
2023/12/02 08:26:21;;;;;;;22.20;14.93;;;;;;;23.43;nan;99197.81;4763361;29;20067;-65
2023/12/02 08:28:51;;;;;;;29.13;15.45;;;;;;;23.42;nan;99196.16;4762644;29;20086;-65
2023/12/02 08:31:20;;;;;;;27.45;14.77;;;;;;;23.34;nan;99191.28;4757811;29;20056;-64
2023/12/02 08:33:50;;;;;;;27.50;15.20;;;;;;;23.35;nan;99192.91;4762129;29;20055;-64
2023/12/02 08:36:20;;;;;;;24.60;15.55;;;;;;;23.45;nan;99185.69;4760269;30;20059;-65
2023/12/02 08:38:49;;;;;;;20.38;13.57;;;;;;;23.33;nan;99176.13;4761919;29;20055;-64
2023/12/02 08:41:18;;;;;;;23.30;14.88;;;;;;;23.35;nan;99168.56;4763087;29;20875;-64
2023/12/02 08:43:48;;;;;;;24.48;13.82;;;;;;;23.29;nan;99159.63;4775768;30;20184;-64
2023/12/02 08:46:18;;;;;;;17.98;12.20;;;;;;;23.31;nan;99162.88;4766599;29;20128;-64
2023/12/02 08:48:47;;;;;;;20.17;12.95;;;;;;;23.29;nan;99159.63;4771264;29;20481;-64
2023/12/02 08:51:17;;;;;;;21.77;13.77;;;;;;;23.32;nan;99164.53;4781582;30;20051;-65
2023/12/02 08:53:56;;;;;;;18.38;13.82;;;;;;;23.31;nan;99160.19;4769215;29;20083;-63
2023/12/02 08:56:27;;;;;;;22.60;13.20;;;;;;;23.24;nan;99149.59;4768581;30;20048;-62
2023/12/02 08:58:57;;;;;;;28.38;14.38;;;;;;;23.19;nan;99152.28;4761910;30;20060;-63
2023/12/02 09:01:27;;;;;;;21.95;13.70;;;;;;;23.21;nan;99146.63;4761238;30;20819;-64
2023/12/02 09:03:57;;;;;;;19.33;12.98;;;;;;;23.22;nan;99149.06;4767494;30;20066;-64
2023/12/02 09:06:27;;;;;;;26.55;13.32;;;;;;;23.19;nan;99146.09;4761981;29;20059;-63
2023/12/02 09:08:56;;;;;;;20.92;12.82;;;;;;;23.18;nan;99145.25;4769716;30;20044;-63
2023/12/02 09:11:25;;;;;;;25.88;13.85;;;;;;;23.14;nan;99143.34;4761977;29;20505;-63
2023/12/02 09:13:58;;;;;;;20.90;12.47;;;;;;;23.12;nan;99140.09;4764622;29;20059;-65
2023/12/02 09:16:29;;;;;;;23.33;12.95;;;;;;;23.03;nan;99141.66;4764726;30;20134;-63
2023/12/02 09:19:00;;;;;;;21.70;12.80;;;;;;;22.99;nan;99127.88;4758755;30;20154;-63
2023/12/02 09:21:45;;;;;;;22.63;13.18;;;;;;;23.05;nan;99123.31;4770445;29;20055;-64
2023/12/02 09:24:36;;;;;;;18.42;12.65;;;;;;;23.07;nan;99135.47;4772799;29;20066;-65
2023/12/02 09:27:07;;;;;;;18.98;13.15;;;;;;;22.99;nan;99127.88;4767506;29;20077;-63
2023/12/02 09:29:40;;;;;;;17.17;11.63;;;;;;;23.00;nan;99128.69;4764683;29;20121;-65
2023/12/02 09:32:23;;;;;;;19.70;11.70;;;;;;;23.01;nan;99127.63;4767342;29;20052;-64
2023/12/02 09:35:03;;;;;;;19.63;11.85;;;;;;;22.98;nan;99123.53;4770161;30;20066;-64
2023/12/02 09:37:38;;;;;;;22.05;12.30;;;;;;;22.95;nan;99121.38;4769182;29;20066;-63
2023/12/02 09:40:25;;;;;;;20.02;13.15;;;;;;;22.96;nan;99117.59;4774056;29;20057;-70
2023/12/02 09:43:00;;;;;;;18.90;12.98;;;;;;;22.96;nan;99112.19;4759721;29;20138;-65
2023/12/02 09:46:07;;;;;;;21.73;13.45;;;;;;;22.94;nan;99106.22;4779893;29;20074;-64
2023/12/02 09:49:15;;;;;;;20.50;12.75;;;;;;;22.91;nan;99108.66;4768364;29;20048;-63
2023/12/02 09:51:47;;;;;;;22.33;12.65;;;;;;;22.89;nan;99110.78;4750790;30;20135;-63
2023/12/02 09:54:37;;;;;;;17.10;13.18;;;;;;;22.94;nan;99110.81;4770007;29;20055;-66
2023/12/02 09:57:23;;;;;;;21.02;12.70;;;;;;;22.85;nan;99105.09;4769422;29;20154;-68
2023/12/02 10:00:15;;;;;;;18.50;11.80;;;;;;;22.80;nan;99105.06;4746372;30;20083;-66
2023/12/02 10:02:50;;;;;;;17.95;12.90;;;;;;;22.77;nan;99098.31;4759506;30;20058;-67
2023/12/02 10:05:21;;;;;;;19.50;11.45;;;;;;;22.72;nan;99095.59;4765513;30;20150;-69
2023/12/02 10:07:53;;;;;;;19.85;12.05;;;;;;;22.71;nan;99101.22;4768832;30;20059;-67
2023/12/02 10:10:26;;;;;;;24.63;12.60;;;;;;;22.69;nan;99089.88;4763670;29;20087;-68
2023/12/02 10:13:11;;;;;;;18.02;11.93;;;;;;;22.60;nan;99091.44;4772558;29;20055;-66
2023/12/02 10:15:41;;;;;;;19.55;12.07;;;;;;;22.56;nan;99087.63;4759490;30;20063;-67
2023/12/02 10:18:17;;;;;;;19.75;12.32;;;;;;;22.49;nan;99087.84;4766199;30;20192;-67
2023/12/02 10:20:55;;;;;;;29.92;13.35;;;;;;;22.49;nan;99090.53;4761603;30;20381;-67
2023/12/02 10:23:31;;;;;;;20.98;12.93;;;;;;;22.45;nan;99086.75;4769509;30;20108;-67
2023/12/02 10:26:19;;;;;;;20.70;12.50;;;;;;;22.45;nan;99085.91;4780275;29;20134;-67
2023/12/02 10:29:16;;;;;;;22.55;12.60;;;;;;;22.39;nan;99082.41;4765079;30;20132;-67
2023/12/02 10:32:04;;;;;;;20.25;12.45;;;;;;;22.34;nan;99087.75;4743777;30;20052;-66
2023/12/02 10:34:59;;;;;;;20.00;12.85;;;;;;;22.27;nan;99085.25;4775928;29;20761;-67
2023/12/02 10:37:40;;;;;;;21.85;12.75;;;;;;;22.25;nan;99090.13;4762829;30;20063;-66
2023/12/02 10:40:18;;;;;;;19.65;12.68;;;;;;;22.23;nan;99086.84;4775051;29;20507;-67
2023/12/02 10:42:59;;;;;;;19.63;12.05;;;;;;;22.25;nan;99086.59;4766038;30;20465;-66
2023/12/02 10:45:30;;;;;;;22.60;12.95;;;;;;;22.17;nan;99087.88;4780664;29;20731;-67
2023/12/02 10:48:00;;;;;;;18.92;12.30;;;;;;;22.16;nan;99085.44;4775047;29;20623;-66
2023/12/02 10:50:30;;;;;;;16.60;11.57;;;;;;;22.09;nan;99092.94;4777721;29;20051;-67
2023/12/02 10:53:04;;;;;;;15.38;11.57;;;;;;;22.02;nan;99085.06;4766596;30;20756;-66
2023/12/02 10:55:37;;;;;;;14.82;10.63;;;;;;;22.02;nan;99085.06;4766076;29;20866;-67
2023/12/02 10:58:07;;;;;;;18.23;10.63;;;;;;;21.97;nan;99086.91;4767403;29;20063;-67
2023/12/02 11:00:42;;;;;;;20.48;11.05;;;;;;;21.92;nan;99091.19;4768589;29;20498;-65
2023/12/02 11:03:35;;;;;;;21.45;11.85;;;;;;;21.80;nan;99087.00;4775049;29;20063;-68
2023/12/02 11:06:10;;;;;;;28.63;10.95;;;;;;;21.75;nan;99082.38;4778620;30;20055;-67
2023/12/02 11:08:45;;;;;;;22.65;11.85;;;;;;;21.69;nan;99083.38;4771501;29;20114;-66
2023/12/02 11:11:31;;;;;;;18.40;10.27;;;;;;;21.62;nan;99088.19;4779532;29;20055;-67
2023/12/02 11:14:03;;;;;;;24.80;11.60;;;;;;;21.54;nan;99085.94;4770525;29;20425;-67
2023/12/02 11:16:41;;;;;;;16.65;10.38;;;;;;;21.48;nan;99089.66;4762255;30;20063;-67
2023/12/02 11:19:26;;;;;;;18.35;10.20;;;;;;;21.43;nan;99089.59;4777828;29;20081;-65
2023/12/02 11:22:14;;;;;;;26.85;11.90;;;;;;;21.39;nan;99083.88;4780340;29;20063;-66
2023/12/02 11:25:21;;;;;;;17.50;10.00;;;;;;;21.35;nan;99085.47;4766125;30;20055;-66
2023/12/02 11:28:07;;;;;;;20.92;11.18;;;;;;;21.23;nan;99084.78;4773434;29;20056;-65
2023/12/02 11:31:02;;;;;;;26.25;11.25;;;;;;;21.12;nan;99088.38;4750713;30;20051;-65
2023/12/02 11:33:59;;;;;;;29.95;11.60;;;;;;;20.90;nan;99088.38;4768125;29;20143;-66
2023/12/02 11:37:00;;;;;;;19.38;10.80;;;;;;;20.82;nan;99082.63;4764704;29;20052;-66
2023/12/02 11:39:57;;;;;;;21.55;11.15;;;;;;;20.75;nan;99088.22;4763096;30;20051;-66
2023/12/02 11:42:38;;;;;;;22.15;11.50;;;;;;;20.69;nan;99080.28;4780528;29;20055;-65
2023/12/02 11:45:18;;;;;;;21.20;11.43;;;;;;;20.52;nan;99080.34;4750035;30;20066;-66
2023/12/02 11:48:21;;;;;;;19.48;11.90;;;;;;;20.49;nan;99084.31;4765577;29;20054;-66
2023/12/02 11:51:03;;;;;;;24.98;12.10;;;;;;;20.41;nan;99079.38;4740056;30;20145;-66
2023/12/02 11:53:37;;;;;;;27.38;11.23;;;;;;;20.32;nan;99085.41;4767581;29;20061;-66
2023/12/02 11:56:12;;;;;;;25.02;11.82;;;;;;;20.22;nan;99091.44;4779077;29;20062;-67